sensor_id;sensor_type;location;lat;lon;timestamp;temperature;humidity
11629;DHT22;5870;52.320;4.970;2022-07-23T00:01:31;21.90;99.90
11629;DHT22;5870;52.320;4.970;2022-07-23T00:03:56;21.80;99.90
11629;DHT22;5870;52.320;4.970;2022-07-23T00:06:23;21.90;99.90
11629;DHT22;5870;52.320;4.970;2022-07-23T00:08:49;21.90;99.90
11629;DHT22;5870;52.320;4.970;2022-07-23T00:11:15;21.90;99.90
11629;DHT22;5870;52.320;4.970;2022-07-23T00:13:41;21.90;99.90
11629;DHT22;5870;52.320;4.970;2022-07-23T00:16:07;21.80;99.90
11629;DHT22;5870;52.320;4.970;2022-07-23T00:18:33;21.80;99.90
11629;DHT22;5870;52.320;4.970;2022-07-23T00:20:59;21.80;99.90
11629;DHT22;5870;52.320;4.970;2022-07-23T00:23:24;21.80;99.90
11629;DHT22;5870;52.320;4.970;2022-07-23T00:25:51;21.80;99.90
11629;DHT22;5870;52.320;4.970;2022-07-23T00:28:17;21.90;99.90
11629;DHT22;5870;52.320;4.970;2022-07-23T00:30:44;21.80;99.90
11629;DHT22;5870;52.320;4.970;2022-07-23T00:33:10;21.90;99.90
11629;DHT22;5870;52.320;4.970;2022-07-23T00:35:38;21.80;99.90
11629;DHT22;5870;52.320;4.970;2022-07-23T00:38:07;21.80;99.90
11629;DHT22;5870;52.320;4.970;2022-07-23T00:40:33;21.80;99.90
11629;DHT22;5870;52.320;4.970;2022-07-23T00:42:59;21.70;99.90
11629;DHT22;5870;52.320;4.970;2022-07-23T00:45:25;21.70;99.90
11629;DHT22;5870;52.320;4.970;2022-07-23T00:47:51;21.60;99.90
11629;DHT22;5870;52.320;4.970;2022-07-23T00:50:17;21.60;99.90
11629;DHT22;5870;52.320;4.970;2022-07-23T00:52:43;21.60;99.90
11629;DHT22;5870;52.320;4.970;2022-07-23T00:55:10;21.70;99.90
11629;DHT22;5870;52.320;4.970;2022-07-23T00:57:37;21.70;99.90
11629;DHT22;5870;52.320;4.970;2022-07-23T01:00:09;21.70;99.90
11629;DHT22;5870;52.320;4.970;2022-07-23T01:02:36;21.70;99.90
11629;DHT22;5870;52.320;4.970;2022-07-23T01:05:02;21.70;99.90
11629;DHT22;5870;52.320;4.970;2022-07-23T01:07:28;21.70;99.90
11629;DHT22;5870;52.320;4.970;2022-07-23T01:09:54;21.70;99.90
11629;DHT22;5870;52.320;4.970;2022-07-23T01:12:20;21.70;99.90
11629;DHT22;5870;52.320;4.970;2022-07-23T01:14:57;21.70;99.90
11629;DHT22;5870;52.320;4.970;2022-07-23T01:17:23;21.60;99.90
11629;DHT22;5870;52.320;4.970;2022-07-23T01:19:48;21.60;99.90
11629;DHT22;5870;52.320;4.970;2022-07-23T01:22:14;21.60;99.90
11629;DHT22;5870;52.320;4.970;2022-07-23T01:24:43;21.60;99.90
11629;DHT22;5870;52.320;4.970;2022-07-23T01:27:08;21.70;99.90
11629;DHT22;5870;52.320;4.970;2022-07-23T01:29:34;21.60;99.90
11629;DHT22;5870;52.320;4.970;2022-07-23T01:32:00;21.60;99.90
11629;DHT22;5870;52.320;4.970;2022-07-23T01:34:25;21.60;99.90
11629;DHT22;5870;52.320;4.970;2022-07-23T01:36:51;21.60;99.90
11629;DHT22;5870;52.320;4.970;2022-07-23T01:39:16;21.60;99.90
11629;DHT22;5870;52.320;4.970;2022-07-23T01:41:42;21.50;99.90
11629;DHT22;5870;52.320;4.970;2022-07-23T01:44:08;21.40;99.90
11629;DHT22;5870;52.320;4.970;2022-07-23T01:46:33;21.40;99.90
11629;DHT22;5870;52.320;4.970;2022-07-23T01:48:59;21.50;99.90
11629;DHT22;5870;52.320;4.970;2022-07-23T01:51:24;21.40;99.90
11629;DHT22;5870;52.320;4.970;2022-07-23T01:53:50;21.40;99.90
11629;DHT22;5870;52.320;4.970;2022-07-23T01:56:16;21.30;99.90
11629;DHT22;5870;52.320;4.970;2022-07-23T01:58:41;21.30;99.90
11629;DHT22;5870;52.320;4.970;2022-07-23T02:01:07;21.40;99.90
11629;DHT22;5870;52.320;4.970;2022-07-23T02:03:32;21.30;99.90
11629;DHT22;5870;52.320;4.970;2022-07-23T02:05:58;21.40;99.90
11629;DHT22;5870;52.320;4.970;2022-07-23T02:08:23;21.30;99.90
11629;DHT22;5870;52.320;4.970;2022-07-23T02:10:49;21.30;99.90
11629;DHT22;5870;52.320;4.970;2022-07-23T02:13:16;21.30;99.90
11629;DHT22;5870;52.320;4.970;2022-07-23T02:15:42;21.30;99.90
11629;DHT22;5870;52.320;4.970;2022-07-23T02:18:08;21.30;99.90
11629;DHT22;5870;52.320;4.970;2022-07-23T02:20:34;21.30;99.90
11629;DHT22;5870;52.320;4.970;2022-07-23T02:22:59;21.30;99.90
11629;DHT22;5870;52.320;4.970;2022-07-23T02:25:25;21.40;99.90
11629;DHT22;5870;52.320;4.970;2022-07-23T02:27:51;21.40;99.90
11629;DHT22;5870;52.320;4.970;2022-07-23T02:30:16;21.40;99.90
11629;DHT22;5870;52.320;4.970;2022-07-23T02:32:42;21.40;99.90
11629;DHT22;5870;52.320;4.970;2022-07-23T02:35:07;21.40;99.90
11629;DHT22;5870;52.320;4.970;2022-07-23T02:37:33;21.40;99.90
11629;DHT22;5870;52.320;4.970;2022-07-23T02:39:59;21.30;99.90
11629;DHT22;5870;52.320;4.970;2022-07-23T02:42:24;21.30;99.90
11629;DHT22;5870;52.320;4.970;2022-07-23T02:44:51;21.30;99.90
11629;DHT22;5870;52.320;4.970;2022-07-23T02:47:17;21.20;99.90
11629;DHT22;5870;52.320;4.970;2022-07-23T02:49:42;21.00;99.90
11629;DHT22;5870;52.320;4.970;2022-07-23T02:52:08;20.90;99.90
11629;DHT22;5870;52.320;4.970;2022-07-23T02:54:36;20.80;99.90
11629;DHT22;5870;52.320;4.970;2022-07-23T02:57:01;20.80;99.90
11629;DHT22;5870;52.320;4.970;2022-07-23T02:59:27;20.80;99.90
11629;DHT22;5870;52.320;4.970;2022-07-23T03:01:53;20.90;99.90
11629;DHT22;5870;52.320;4.970;2022-07-23T03:04:18;20.90;99.90
11629;DHT22;5870;52.320;4.970;2022-07-23T03:06:44;20.90;99.90
11629;DHT22;5870;52.320;4.970;2022-07-23T03:09:10;21.00;99.90
11629;DHT22;5870;52.320;4.970;2022-07-23T03:11:35;21.00;99.90
11629;DHT22;5870;52.320;4.970;2022-07-23T03:14:01;21.10;99.90
11629;DHT22;5870;52.320;4.970;2022-07-23T03:16:26;21.10;99.90
11629;DHT22;5870;52.320;4.970;2022-07-23T03:18:52;21.20;99.90
11629;DHT22;5870;52.320;4.970;2022-07-23T03:21:17;21.20;99.90
11629;DHT22;5870;52.320;4.970;2022-07-23T03:23:43;21.20;99.90
11629;DHT22;5870;52.320;4.970;2022-07-23T03:26:09;21.30;99.90
11629;DHT22;5870;52.320;4.970;2022-07-23T03:28:34;21.20;99.90
11629;DHT22;5870;52.320;4.970;2022-07-23T03:31:00;21.10;99.90
11629;DHT22;5870;52.320;4.970;2022-07-23T03:33:26;21.10;99.90
11629;DHT22;5870;52.320;4.970;2022-07-23T03:35:51;21.10;99.90
11629;DHT22;5870;52.320;4.970;2022-07-23T03:38:17;21.20;99.90
11629;DHT22;5870;52.320;4.970;2022-07-23T03:40:42;21.20;99.90
11629;DHT22;5870;52.320;4.970;2022-07-23T03:43:08;21.10;99.90
11629;DHT22;5870;52.320;4.970;2022-07-23T03:45:33;21.10;99.90
11629;DHT22;5870;52.320;4.970;2022-07-23T03:48:00;21.00;99.90
11629;DHT22;5870;52.320;4.970;2022-07-23T03:50:25;21.10;99.90
11629;DHT22;5870;52.320;4.970;2022-07-23T03:52:51;21.10;99.90
11629;DHT22;5870;52.320;4.970;2022-07-23T03:55:17;21.10;99.90
11629;DHT22;5870;52.320;4.970;2022-07-23T03:57:43;21.10;99.90
11629;DHT22;5870;52.320;4.970;2022-07-23T04:00:10;21.10;99.90
11629;DHT22;5870;52.320;4.970;2022-07-23T04:02:37;21.10;99.90
11629;DHT22;5870;52.320;4.970;2022-07-23T04:05:03;21.10;99.90
11629;DHT22;5870;52.320;4.970;2022-07-23T04:07:29;21.10;99.90
11629;DHT22;5870;52.320;4.970;2022-07-23T04:09:55;21.20;99.90
11629;DHT22;5870;52.320;4.970;2022-07-23T04:12:21;21.20;99.90
11629;DHT22;5870;52.320;4.970;2022-07-23T04:14:47;21.20;99.90
11629;DHT22;5870;52.320;4.970;2022-07-23T04:17:12;21.20;99.90
11629;DHT22;5870;52.320;4.970;2022-07-23T04:19:38;21.20;99.90
11629;DHT22;5870;52.320;4.970;2022-07-23T04:22:07;21.30;99.90
11629;DHT22;5870;52.320;4.970;2022-07-23T04:24:34;21.30;99.90
11629;DHT22;5870;52.320;4.970;2022-07-23T04:26:59;21.30;99.90
11629;DHT22;5870;52.320;4.970;2022-07-23T04:29:25;21.30;99.90
11629;DHT22;5870;52.320;4.970;2022-07-23T04:31:51;21.40;99.90
11629;DHT22;5870;52.320;4.970;2022-07-23T04:34:16;21.40;99.90
11629;DHT22;5870;52.320;4.970;2022-07-23T04:36:42;21.40;99.90
11629;DHT22;5870;52.320;4.970;2022-07-23T04:39:08;21.40;99.90
11629;DHT22;5870;52.320;4.970;2022-07-23T04:41:33;21.40;99.90
11629;DHT22;5870;52.320;4.970;2022-07-23T04:44:00;21.40;99.90
11629;DHT22;5870;52.320;4.970;2022-07-23T04:46:25;21.40;99.90
11629;DHT22;5870;52.320;4.970;2022-07-23T04:48:51;21.30;99.90
11629;DHT22;5870;52.320;4.970;2022-07-23T04:51:17;21.20;99.90
11629;DHT22;5870;52.320;4.970;2022-07-23T04:53:42;21.20;99.90
11629;DHT22;5870;52.320;4.970;2022-07-23T04:56:08;21.20;99.90
11629;DHT22;5870;52.320;4.970;2022-07-23T04:58:34;21.20;99.90
11629;DHT22;5870;52.320;4.970;2022-07-23T05:01:00;21.20;99.90
11629;DHT22;5870;52.320;4.970;2022-07-23T05:03:25;21.20;99.90
11629;DHT22;5870;52.320;4.970;2022-07-23T05:05:51;21.20;99.90
11629;DHT22;5870;52.320;4.970;2022-07-23T05:08:16;21.10;99.90
11629;DHT22;5870;52.320;4.970;2022-07-23T05:10:42;21.10;99.90
11629;DHT22;5870;52.320;4.970;2022-07-23T05:13:08;21.10;99.90
11629;DHT22;5870;52.320;4.970;2022-07-23T05:15:33;21.10;99.90
11629;DHT22;5870;52.320;4.970;2022-07-23T05:17:59;21.00;99.90
11629;DHT22;5870;52.320;4.970;2022-07-23T05:20:24;21.00;99.90
11629;DHT22;5870;52.320;4.970;2022-07-23T05:22:50;20.90;99.90
11629;DHT22;5870;52.320;4.970;2022-07-23T05:25:16;20.90;99.90
11629;DHT22;5870;52.320;4.970;2022-07-23T05:27:42;21.00;99.90
11629;DHT22;5870;52.320;4.970;2022-07-23T05:30:08;21.20;99.90
11629;DHT22;5870;52.320;4.970;2022-07-23T05:32:33;21.20;99.90
11629;DHT22;5870;52.320;4.970;2022-07-23T05:34:59;21.40;99.90
11629;DHT22;5870;52.320;4.970;2022-07-23T05:37:24;21.40;99.90
11629;DHT22;5870;52.320;4.970;2022-07-23T05:39:51;21.50;99.90
11629;DHT22;5870;52.320;4.970;2022-07-23T05:42:17;21.50;99.90
11629;DHT22;5870;52.320;4.970;2022-07-23T05:44:42;21.60;99.90
11629;DHT22;5870;52.320;4.970;2022-07-23T05:47:08;21.60;99.90
11629;DHT22;5870;52.320;4.970;2022-07-23T05:49:33;21.70;99.90
11629;DHT22;5870;52.320;4.970;2022-07-23T05:52:03;21.70;99.90
11629;DHT22;5870;52.320;4.970;2022-07-23T05:54:29;21.70;99.90
11629;DHT22;5870;52.320;4.970;2022-07-23T05:56:54;21.60;99.90
11629;DHT22;5870;52.320;4.970;2022-07-23T05:59:20;21.60;99.90
11629;DHT22;5870;52.320;4.970;2022-07-23T06:01:45;21.60;99.90
11629;DHT22;5870;52.320;4.970;2022-07-23T06:04:11;21.60;99.90
11629;DHT22;5870;52.320;4.970;2022-07-23T06:06:37;21.60;99.90
11629;DHT22;5870;52.320;4.970;2022-07-23T06:09:03;21.60;99.90
11629;DHT22;5870;52.320;4.970;2022-07-23T06:11:28;21.70;99.90
11629;DHT22;5870;52.320;4.970;2022-07-23T06:13:54;21.50;99.90
11629;DHT22;5870;52.320;4.970;2022-07-23T06:16:20;21.30;99.90
11629;DHT22;5870;52.320;4.970;2022-07-23T06:18:46;21.40;99.90
11629;DHT22;5870;52.320;4.970;2022-07-23T06:21:11;21.20;99.90
11629;DHT22;5870;52.320;4.970;2022-07-23T06:23:37;21.20;99.90
11629;DHT22;5870;52.320;4.970;2022-07-23T06:26:02;21.10;99.90
11629;DHT22;5870;52.320;4.970;2022-07-23T06:28:28;21.10;99.90
11629;DHT22;5870;52.320;4.970;2022-07-23T06:30:53;21.00;99.90
11629;DHT22;5870;52.320;4.970;2022-07-23T06:33:19;21.00;99.90
11629;DHT22;5870;52.320;4.970;2022-07-23T06:35:45;21.00;99.90
11629;DHT22;5870;52.320;4.970;2022-07-23T06:38:10;21.20;99.90
11629;DHT22;5870;52.320;4.970;2022-07-23T06:40:36;21.30;99.90
11629;DHT22;5870;52.320;4.970;2022-07-23T06:43:01;21.50;99.90
11629;DHT22;5870;52.320;4.970;2022-07-23T06:45:27;21.40;99.90
11629;DHT22;5870;52.320;4.970;2022-07-23T06:47:53;21.20;99.90
11629;DHT22;5870;52.320;4.970;2022-07-23T06:50:18;21.00;99.90
11629;DHT22;5870;52.320;4.970;2022-07-23T06:52:44;21.10;99.90
11629;DHT22;5870;52.320;4.970;2022-07-23T06:55:09;21.00;99.90
11629;DHT22;5870;52.320;4.970;2022-07-23T06:57:35;21.30;99.90
11629;DHT22;5870;52.320;4.970;2022-07-23T07:00:01;21.40;99.90
11629;DHT22;5870;52.320;4.970;2022-07-23T07:02:26;21.60;99.90
11629;DHT22;5870;52.320;4.970;2022-07-23T07:04:52;21.70;99.90
11629;DHT22;5870;52.320;4.970;2022-07-23T07:07:18;21.90;99.90
11629;DHT22;5870;52.320;4.970;2022-07-23T07:09:44;22.00;99.90
11629;DHT22;5870;52.320;4.970;2022-07-23T07:12:10;22.00;99.90
11629;DHT22;5870;52.320;4.970;2022-07-23T07:14:37;22.10;99.90
11629;DHT22;5870;52.320;4.970;2022-07-23T07:17:02;22.20;99.90
11629;DHT22;5870;52.320;4.970;2022-07-23T07:19:28;22.20;99.90
11629;DHT22;5870;52.320;4.970;2022-07-23T07:21:54;22.20;99.90
11629;DHT22;5870;52.320;4.970;2022-07-23T07:24:19;22.20;99.90
11629;DHT22;5870;52.320;4.970;2022-07-23T07:26:45;22.30;99.90
11629;DHT22;5870;52.320;4.970;2022-07-23T07:29:10;22.30;99.90
11629;DHT22;5870;52.320;4.970;2022-07-23T07:31:36;22.30;99.90
11629;DHT22;5870;52.320;4.970;2022-07-23T07:34:03;22.30;99.90
11629;DHT22;5870;52.320;4.970;2022-07-23T07:36:28;22.30;99.90
11629;DHT22;5870;52.320;4.970;2022-07-23T07:38:54;22.30;99.90
11629;DHT22;5870;52.320;4.970;2022-07-23T07:41:20;22.40;99.90
11629;DHT22;5870;52.320;4.970;2022-07-23T07:43:49;22.30;99.90
11629;DHT22;5870;52.320;4.970;2022-07-23T07:46:15;22.30;99.90
11629;DHT22;5870;52.320;4.970;2022-07-23T07:48:41;22.30;99.90
11629;DHT22;5870;52.320;4.970;2022-07-23T07:51:06;22.30;99.90
11629;DHT22;5870;52.320;4.970;2022-07-23T07:53:32;22.30;99.90
11629;DHT22;5870;52.320;4.970;2022-07-23T07:55:58;22.40;99.90
11629;DHT22;5870;52.320;4.970;2022-07-23T07:58:24;22.40;99.90
11629;DHT22;5870;52.320;4.970;2022-07-23T08:00:49;22.40;99.90
11629;DHT22;5870;52.320;4.970;2022-07-23T08:03:16;22.40;99.90
11629;DHT22;5870;52.320;4.970;2022-07-23T08:05:42;22.40;99.90
11629;DHT22;5870;52.320;4.970;2022-07-23T08:08:07;22.40;99.90
11629;DHT22;5870;52.320;4.970;2022-07-23T08:10:35;22.50;99.90
11629;DHT22;5870;52.320;4.970;2022-07-23T08:13:00;22.50;99.90
11629;DHT22;5870;52.320;4.970;2022-07-23T08:15:28;22.60;99.90
11629;DHT22;5870;52.320;4.970;2022-07-23T08:17:54;22.50;99.90
11629;DHT22;5870;52.320;4.970;2022-07-23T08:20:22;22.50;99.90
11629;DHT22;5870;52.320;4.970;2022-07-23T08:22:59;22.60;99.90
11629;DHT22;5870;52.320;4.970;2022-07-23T08:25:28;22.60;99.90
11629;DHT22;5870;52.320;4.970;2022-07-23T08:27:54;22.50;99.90
11629;DHT22;5870;52.320;4.970;2022-07-23T08:30:21;22.50;99.90
11629;DHT22;5870;52.320;4.970;2022-07-23T08:32:53;22.60;99.90
11629;DHT22;5870;52.320;4.970;2022-07-23T08:35:24;22.50;99.90
11629;DHT22;5870;52.320;4.970;2022-07-23T08:37:50;22.60;99.90
11629;DHT22;5870;52.320;4.970;2022-07-23T08:40:15;22.50;99.90
11629;DHT22;5870;52.320;4.970;2022-07-23T08:42:41;22.50;99.90
11629;DHT22;5870;52.320;4.970;2022-07-23T08:45:08;22.50;99.90
11629;DHT22;5870;52.320;4.970;2022-07-23T08:47:36;22.50;99.90
11629;DHT22;5870;52.320;4.970;2022-07-23T08:50:02;22.50;99.90
11629;DHT22;5870;52.320;4.970;2022-07-23T08:52:30;22.50;99.90
11629;DHT22;5870;52.320;4.970;2022-07-23T08:54:56;22.60;99.90
11629;DHT22;5870;52.320;4.970;2022-07-23T08:57:22;22.60;99.90
11629;DHT22;5870;52.320;4.970;2022-07-23T08:59:48;22.60;99.90
11629;DHT22;5870;52.320;4.970;2022-07-23T09:02:13;22.60;99.90
11629;DHT22;5870;52.320;4.970;2022-07-23T09:04:39;22.70;99.90
11629;DHT22;5870;52.320;4.970;2022-07-23T09:07:05;22.70;99.90
11629;DHT22;5870;52.320;4.970;2022-07-23T09:09:30;22.70;99.90
11629;DHT22;5870;52.320;4.970;2022-07-23T09:12:04;22.70;99.90
11629;DHT22;5870;52.320;4.970;2022-07-23T09:14:42;22.60;99.90
11629;DHT22;5870;52.320;4.970;2022-07-23T09:17:12;22.50;99.90
11629;DHT22;5870;52.320;4.970;2022-07-23T09:19:38;22.60;99.90
11629;DHT22;5870;52.320;4.970;2022-07-23T09:22:25;23.00;99.90
11629;DHT22;5870;52.320;4.970;2022-07-23T09:25:13;22.60;99.90
11629;DHT22;5870;52.320;4.970;2022-07-23T09:27:57;22.70;99.90
11629;DHT22;5870;52.320;4.970;2022-07-23T09:30:26;22.70;99.90
11629;DHT22;5870;52.320;4.970;2022-07-23T09:33:11;22.70;99.90
11629;DHT22;5870;52.320;4.970;2022-07-23T09:35:54;22.70;99.90
11629;DHT22;5870;52.320;4.970;2022-07-23T09:38:23;22.60;99.90
11629;DHT22;5870;52.320;4.970;2022-07-23T09:41:06;22.60;99.90
11629;DHT22;5870;52.320;4.970;2022-07-23T09:43:32;22.50;99.90
11629;DHT22;5870;52.320;4.970;2022-07-23T09:46:27;22.60;99.90
11629;DHT22;5870;52.320;4.970;2022-07-23T09:48:56;22.50;99.90
11629;DHT22;5870;52.320;4.970;2022-07-23T09:51:23;22.70;99.90
11629;DHT22;5870;52.320;4.970;2022-07-23T09:54:02;22.70;99.90
11629;DHT22;5870;52.320;4.970;2022-07-23T09:56:28;22.70;99.90
11629;DHT22;5870;52.320;4.970;2022-07-23T09:58:54;22.60;99.90
11629;DHT22;5870;52.320;4.970;2022-07-23T10:01:54;22.80;99.90
11629;DHT22;5870;52.320;4.970;2022-07-23T10:04:22;22.70;99.90
11629;DHT22;5870;52.320;4.970;2022-07-23T10:06:54;22.80;99.90
11629;DHT22;5870;52.320;4.970;2022-07-23T10:09:31;22.80;99.90
11629;DHT22;5870;52.320;4.970;2022-07-23T10:12:03;22.80;99.90
11629;DHT22;5870;52.320;4.970;2022-07-23T10:14:48;22.80;99.90
11629;DHT22;5870;52.320;4.970;2022-07-23T10:17:14;22.90;99.90
11629;DHT22;5870;52.320;4.970;2022-07-23T10:19:40;22.90;99.90
11629;DHT22;5870;52.320;4.970;2022-07-23T10:22:14;22.80;99.90
11629;DHT22;5870;52.320;4.970;2022-07-23T10:24:50;22.80;99.90
11629;DHT22;5870;52.320;4.970;2022-07-23T10:30:01;22.70;99.90
11629;DHT22;5870;52.320;4.970;2022-07-23T10:32:44;22.70;99.90
11629;DHT22;5870;52.320;4.970;2022-07-23T10:35:40;22.70;99.90
11629;DHT22;5870;52.320;4.970;2022-07-23T10:38:36;23.60;99.90
11629;DHT22;5870;52.320;4.970;2022-07-23T10:41:04;22.80;99.90
11629;DHT22;5870;52.320;4.970;2022-07-23T10:43:30;22.80;99.90
11629;DHT22;5870;52.320;4.970;2022-07-23T10:46:20;22.80;99.90
11629;DHT22;5870;52.320;4.970;2022-07-23T10:48:42;22.80;99.90
11629;DHT22;5870;52.320;4.970;2022-07-23T10:51:13;22.90;99.90
11629;DHT22;5870;52.320;4.970;2022-07-23T10:56:19;22.90;99.90
11629;DHT22;5870;52.320;4.970;2022-07-23T10:59:05;23.00;99.90
11629;DHT22;5870;52.320;4.970;2022-07-23T11:01:37;23.00;99.90
11629;DHT22;5870;52.320;4.970;2022-07-23T11:04:04;23.00;99.90
11629;DHT22;5870;52.320;4.970;2022-07-23T11:09:27;23.10;99.90
11629;DHT22;5870;52.320;4.970;2022-07-23T11:15:13;23.20;99.90
11629;DHT22;5870;52.320;4.970;2022-07-23T11:22:48;23.50;99.90
11629;DHT22;5870;52.320;4.970;2022-07-23T11:25:29;23.50;99.90
11629;DHT22;5870;52.320;4.970;2022-07-23T11:28:17;23.60;99.90
11629;DHT22;5870;52.320;4.970;2022-07-23T11:30:47;23.60;99.90
11629;DHT22;5870;52.320;4.970;2022-07-23T11:33:16;23.60;99.90
11629;DHT22;5870;52.320;4.970;2022-07-23T11:35:44;23.70;99.90
11629;DHT22;5870;52.320;4.970;2022-07-23T11:38:21;23.70;99.90
11629;DHT22;5870;52.320;4.970;2022-07-23T11:40:52;23.80;99.90
11629;DHT22;5870;52.320;4.970;2022-07-23T11:43:21;23.80;99.90
11629;DHT22;5870;52.320;4.970;2022-07-23T11:45:49;24.00;99.90
11629;DHT22;5870;52.320;4.970;2022-07-23T11:48:27;24.00;99.90
11629;DHT22;5870;52.320;4.970;2022-07-23T11:50:54;24.10;99.90
11629;DHT22;5870;52.320;4.970;2022-07-23T11:53:33;24.20;99.90
11629;DHT22;5870;52.320;4.970;2022-07-23T11:56:10;24.20;99.90
11629;DHT22;5870;52.320;4.970;2022-07-23T11:58:36;24.30;99.90
11629;DHT22;5870;52.320;4.970;2022-07-23T12:01:03;24.30;99.90
11629;DHT22;5870;52.320;4.970;2022-07-23T12:03:29;24.40;99.90
11629;DHT22;5870;52.320;4.970;2022-07-23T12:05:59;24.50;99.90
11629;DHT22;5870;52.320;4.970;2022-07-23T12:08:25;24.60;99.90
11629;DHT22;5870;52.320;4.970;2022-07-23T12:10:51;24.70;99.90
11629;DHT22;5870;52.320;4.970;2022-07-23T12:13:20;24.80;99.90
11629;DHT22;5870;52.320;4.970;2022-07-23T12:15:50;24.90;99.90
11629;DHT22;5870;52.320;4.970;2022-07-23T12:18:20;24.90;99.90
11629;DHT22;5870;52.320;4.970;2022-07-23T12:20:49;25.00;99.90
11629;DHT22;5870;52.320;4.970;2022-07-23T12:23:18;25.10;99.90
11629;DHT22;5870;52.320;4.970;2022-07-23T12:25:45;25.10;99.90
11629;DHT22;5870;52.320;4.970;2022-07-23T12:28:14;25.20;99.90
11629;DHT22;5870;52.320;4.970;2022-07-23T12:30:53;25.20;99.90
11629;DHT22;5870;52.320;4.970;2022-07-23T12:33:28;25.10;99.90
11629;DHT22;5870;52.320;4.970;2022-07-23T12:36:00;25.10;99.90
11629;DHT22;5870;52.320;4.970;2022-07-23T12:38:28;24.90;99.90
11629;DHT22;5870;52.320;4.970;2022-07-23T12:40:58;24.90;99.90
11629;DHT22;5870;52.320;4.970;2022-07-23T12:43:36;24.80;99.90
11629;DHT22;5870;52.320;4.970;2022-07-23T12:46:06;24.70;99.90
11629;DHT22;5870;52.320;4.970;2022-07-23T12:48:52;24.70;99.90
11629;DHT22;5870;52.320;4.970;2022-07-23T12:51:21;24.70;99.90
11629;DHT22;5870;52.320;4.970;2022-07-23T12:53:49;24.70;99.90
11629;DHT22;5870;52.320;4.970;2022-07-23T12:58:53;24.60;99.90
11629;DHT22;5870;52.320;4.970;2022-07-23T13:03:55;24.60;99.90
11629;DHT22;5870;52.320;4.970;2022-07-23T13:06:21;24.50;99.90
11629;DHT22;5870;52.320;4.970;2022-07-23T13:08:47;24.50;99.90
11629;DHT22;5870;52.320;4.970;2022-07-23T13:11:13;24.50;99.90
11629;DHT22;5870;52.320;4.970;2022-07-23T13:13:39;24.50;99.90
11629;DHT22;5870;52.320;4.970;2022-07-23T13:16:04;24.60;99.90
11629;DHT22;5870;52.320;4.970;2022-07-23T13:18:30;24.60;99.90
11629;DHT22;5870;52.320;4.970;2022-07-23T13:20:56;24.70;99.90
11629;DHT22;5870;52.320;4.970;2022-07-23T13:23:22;24.70;99.90
11629;DHT22;5870;52.320;4.970;2022-07-23T13:25:48;24.70;99.90
11629;DHT22;5870;52.320;4.970;2022-07-23T13:28:15;24.70;99.90
11629;DHT22;5870;52.320;4.970;2022-07-23T13:30:41;24.80;99.90
11629;DHT22;5870;52.320;4.970;2022-07-23T13:33:07;24.80;99.90
11629;DHT22;5870;52.320;4.970;2022-07-23T13:35:34;24.90;99.90
11629;DHT22;5870;52.320;4.970;2022-07-23T13:38:00;25.00;99.90
11629;DHT22;5870;52.320;4.970;2022-07-23T13:40:26;25.20;99.90
11629;DHT22;5870;52.320;4.970;2022-07-23T13:42:51;25.60;99.90
11629;DHT22;5870;52.320;4.970;2022-07-23T13:45:17;25.90;99.90
11629;DHT22;5870;52.320;4.970;2022-07-23T13:47:43;26.10;99.90
11629;DHT22;5870;52.320;4.970;2022-07-23T13:50:08;26.40;99.90
11629;DHT22;5870;52.320;4.970;2022-07-23T13:52:34;26.60;99.90
11629;DHT22;5870;52.320;4.970;2022-07-23T13:55:01;26.90;99.90
11629;DHT22;5870;52.320;4.970;2022-07-23T13:57:27;27.10;99.80
11629;DHT22;5870;52.320;4.970;2022-07-23T13:59:53;27.40;99.70
11629;DHT22;5870;52.320;4.970;2022-07-23T14:02:18;27.60;99.40
11629;DHT22;5870;52.320;4.970;2022-07-23T14:04:44;27.70;98.90
11629;DHT22;5870;52.320;4.970;2022-07-23T14:07:10;28.00;98.60
11629;DHT22;5870;52.320;4.970;2022-07-23T14:09:36;28.20;98.30
11629;DHT22;5870;52.320;4.970;2022-07-23T14:12:02;28.20;98.10
11629;DHT22;5870;52.320;4.970;2022-07-23T14:14:28;28.20;97.40
11629;DHT22;5870;52.320;4.970;2022-07-23T14:16:55;28.30;96.80
11629;DHT22;5870;52.320;4.970;2022-07-23T14:19:20;28.40;96.30
11629;DHT22;5870;52.320;4.970;2022-07-23T14:21:46;28.50;96.10
11629;DHT22;5870;52.320;4.970;2022-07-23T14:24:14;28.60;95.50
11629;DHT22;5870;52.320;4.970;2022-07-23T14:26:40;28.70;95.20
11629;DHT22;5870;52.320;4.970;2022-07-23T14:29:06;28.80;94.60
11629;DHT22;5870;52.320;4.970;2022-07-23T14:31:31;28.90;93.90
11629;DHT22;5870;52.320;4.970;2022-07-23T14:33:57;28.90;93.40
11629;DHT22;5870;52.320;4.970;2022-07-23T14:36:23;28.80;93.20
11629;DHT22;5870;52.320;4.970;2022-07-23T14:38:49;28.70;93.20
11629;DHT22;5870;52.320;4.970;2022-07-23T14:41:14;28.80;93.40
11629;DHT22;5870;52.320;4.970;2022-07-23T14:43:40;28.90;93.50
11629;DHT22;5870;52.320;4.970;2022-07-23T14:46:06;29.00;93.90
11629;DHT22;5870;52.320;4.970;2022-07-23T14:48:32;29.20;93.90
11629;DHT22;5870;52.320;4.970;2022-07-23T14:50:57;29.30;93.90
11629;DHT22;5870;52.320;4.970;2022-07-23T14:53:23;29.40;93.20
11629;DHT22;5870;52.320;4.970;2022-07-23T14:55:49;29.40;91.90
11629;DHT22;5870;52.320;4.970;2022-07-23T14:58:14;29.30;91.50
11629;DHT22;5870;52.320;4.970;2022-07-23T15:00:40;29.10;91.50
11629;DHT22;5870;52.320;4.970;2022-07-23T15:03:05;28.90;91.40
11629;DHT22;5870;52.320;4.970;2022-07-23T15:05:31;28.70;91.70
11629;DHT22;5870;52.320;4.970;2022-07-23T15:07:57;28.60;91.80
11629;DHT22;5870;52.320;4.970;2022-07-23T15:10:22;28.50;91.90
11629;DHT22;5870;52.320;4.970;2022-07-23T15:12:49;28.50;92.10
11629;DHT22;5870;52.320;4.970;2022-07-23T15:15:15;28.40;92.10
11629;DHT22;5870;52.320;4.970;2022-07-23T15:17:40;28.30;92.40
11629;DHT22;5870;52.320;4.970;2022-07-23T15:20:07;28.30;93.00
11629;DHT22;5870;52.320;4.970;2022-07-23T15:22:33;28.20;93.30
11629;DHT22;5870;52.320;4.970;2022-07-23T15:24:59;28.10;93.50
11629;DHT22;5870;52.320;4.970;2022-07-23T15:27:24;28.00;93.80
11629;DHT22;5870;52.320;4.970;2022-07-23T15:29:50;27.70;94.00
11629;DHT22;5870;52.320;4.970;2022-07-23T15:32:15;27.60;94.20
11629;DHT22;5870;52.320;4.970;2022-07-23T15:34:41;27.50;94.40
11629;DHT22;5870;52.320;4.970;2022-07-23T15:37:07;27.40;94.60
11629;DHT22;5870;52.320;4.970;2022-07-23T15:39:32;27.30;94.70
11629;DHT22;5870;52.320;4.970;2022-07-23T15:42:02;27.20;95.00
11629;DHT22;5870;52.320;4.970;2022-07-23T15:44:28;27.00;95.10
11629;DHT22;5870;52.320;4.970;2022-07-23T15:46:56;26.90;95.30
11629;DHT22;5870;52.320;4.970;2022-07-23T15:49:22;26.80;95.50
11629;DHT22;5870;52.320;4.970;2022-07-23T15:51:48;26.70;96.00
11629;DHT22;5870;52.320;4.970;2022-07-23T15:54:13;26.60;95.70
11629;DHT22;5870;52.320;4.970;2022-07-23T15:56:39;26.50;95.70
11629;DHT22;5870;52.320;4.970;2022-07-23T15:59:07;26.40;95.80
11629;DHT22;5870;52.320;4.970;2022-07-23T16:01:33;26.40;96.00
11629;DHT22;5870;52.320;4.970;2022-07-23T16:03:59;26.40;96.20
11629;DHT22;5870;52.320;4.970;2022-07-23T16:06:25;26.50;96.10
11629;DHT22;5870;52.320;4.970;2022-07-23T16:08:54;26.70;95.90